Terminal Aerodrome Forecast
Issued by NWS Bismarck, ND

Home | Current Version | Previous Version | Text Only | Print | Product List | Glossary On
Versions: 1 2 3 4 5 6 7 8 9 10 11 12 13
000
FTUS43 KBIS 301133
TAFBIS
TAF
KBIS 301133Z 3012/0112 13010KT P6SM BKN200 WS020/17035KT
     FM301400 13010KT P6SM BKN150
     FM301700 16016G22KT P6SM BKN110
     FM010100 14010KT P6SM BKN150=

USA.gov is the U.S. government's official web portal to all federal, state and local government web resources and services.